createdAt,value
2023-06-11T00:00:10.848Z,97749.34
2023-06-11T00:01:15.775Z,97749.66
2023-06-11T00:02:23.326Z,97752.72
2023-06-11T00:03:26.643Z,97750.81
2023-06-11T00:04:36.187Z,97748.97
2023-06-11T00:05:39.258Z,97746.53
2023-06-11T00:06:42.700Z,97751.06
2023-06-11T00:07:45.691Z,97751.47
2023-06-11T00:08:55.817Z,97756.34
2023-06-11T00:09:58.590Z,97752.66
2023-06-11T00:11:01.702Z,97755.78
2023-06-11T00:12:04.905Z,97755.28
2023-06-11T00:13:07.791Z,97756.25
2023-06-11T00:14:11.661Z,97762.41
2023-06-11T00:15:14.765Z,97759.66
2023-06-11T00:16:18.099Z,97751.47
2023-06-11T00:17:21.261Z,97757.12
2023-06-11T00:18:24.432Z,97757.44
2023-06-11T00:19:30.626Z,97759.41
2023-06-11T00:20:34.251Z,97761.19
2023-06-11T00:21:38.066Z,97759.25
2023-06-11T00:22:42.360Z,97761.47
2023-06-11T00:23:45.196Z,97760.97
2023-06-11T00:24:48.105Z,97763.00
2023-06-11T00:25:51.830Z,97765.31
2023-06-11T00:26:55.080Z,97761.13
2023-06-11T00:27:57.979Z,97763.25
2023-06-11T00:29:00.891Z,97761.41
2023-06-11T00:30:05.926Z,97755.66
2023-06-11T00:31:11.682Z,97761.72
2023-06-11T00:32:14.520Z,97757.63
2023-06-11T00:33:17.370Z,97765.13
2023-06-11T00:34:20.190Z,97764.00
2023-06-11T00:35:23.110Z,97759.91
2023-06-11T00:36:29.320Z,97764.00
2023-06-11T00:37:33.803Z,97763.19
2023-06-11T00:38:37.113Z,97769.72
2023-06-11T00:39:40.027Z,97764.88
2023-06-11T00:40:43.016Z,97758.88
2023-06-11T00:41:50.333Z,97767.34
2023-06-11T00:42:53.294Z,97763.78
2023-06-11T00:43:56.133Z,97765.38
2023-06-11T00:44:59.255Z,97767.59
2023-06-11T00:46:03.809Z,97760.06
2023-06-11T00:47:08.772Z,97769.59
2023-06-11T00:48:11.779Z,97763.50
2023-06-11T00:49:15.885Z,97767.03
2023-06-11T00:50:18.879Z,97765.84
2023-06-11T00:51:26.190Z,97766.59
2023-06-11T00:52:29.027Z,97765.06
2023-06-11T00:53:32.035Z,97768.78
2023-06-11T00:54:35.073Z,97763.00
2023-06-11T00:55:37.848Z,97769.41
2023-06-11T00:56:42.551Z,97770.88
2023-06-11T00:57:45.560Z,97768.59
2023-06-11T00:58:52.600Z,97767.81
2023-06-11T00:59:57.327Z,97773.53
2023-06-11T01:01:02.184Z,97768.66
2023-06-11T01:02:19.640Z,97764.88
2023-06-11T01:03:28.513Z,97767.19
2023-06-11T01:04:35.239Z,97771.31
2023-06-11T01:05:44.618Z,97769.00
2023-06-11T01:06:51.173Z,97768.72
2023-06-11T01:07:57.099Z,97764.62
2023-06-11T01:09:00.901Z,97767.25
2023-06-11T01:10:04.769Z,97769.91
2023-06-11T01:11:15.441Z,97771.12
2023-06-11T01:12:18.529Z,97768.91
2023-06-11T01:13:21.421Z,97767.34
2023-06-11T01:14:24.336Z,97763.84
2023-06-11T01:15:27.691Z,97767.25
2023-06-11T01:16:46.565Z,97766.13
2023-06-11T01:18:04.026Z,97762.72
2023-06-11T01:19:33.227Z,97761.97
2023-06-11T01:20:51.687Z,97769.84
2023-06-11T01:22:00.815Z,97759.94
2023-06-11T01:23:17.723Z,97760.72
2023-06-11T01:24:36.020Z,97761.03
2023-06-11T01:25:51.902Z,97770.38
2023-06-11T01:27:09.743Z,97763.19
2023-06-11T01:28:21.194Z,97763.81
2023-06-11T01:29:24.838Z,97759.94
2023-06-11T01:30:30.391Z,97767.03
2023-06-11T01:31:38.948Z,97764.31
2023-06-11T01:32:41.970Z,97762.72
2023-06-11T01:33:45.240Z,97762.72
2023-06-11T01:34:48.182Z,97764.75
2023-06-11T01:35:51.018Z,97768.16
2023-06-11T01:36:53.877Z,97767.47
2023-06-11T01:37:57.004Z,97762.03
2023-06-11T01:39:00.277Z,97765.84
2023-06-11T01:40:03.694Z,97766.69
2023-06-11T01:41:06.591Z,97769.00
2023-06-11T01:42:09.619Z,97772.44
2023-06-11T01:43:13.009Z,97763.28
2023-06-11T01:44:15.890Z,97765.78
2023-06-11T01:45:19.646Z,97769.47
2023-06-11T01:46:22.585Z,97769.47
2023-06-11T01:47:25.918Z,97769.56
2023-06-11T01:48:28.677Z,97777.06
2023-06-11T01:49:32.249Z,97772.19
2023-06-11T01:50:35.120Z,97774.78
2023-06-11T01:51:38.976Z,97774.78
2023-06-11T01:52:42.413Z,97777.94
2023-06-11T01:53:45.211Z,97774.41
2023-06-11T01:54:48.006Z,97773.13
2023-06-11T01:55:51.101Z,97776.94
2023-06-11T01:56:53.984Z,97772.34
2023-06-11T01:57:56.965Z,97776.88
2023-06-11T01:58:59.809Z,97773.72
2023-06-11T02:00:06.601Z,97775.97
2023-06-11T02:01:09.747Z,97782.09
2023-06-11T02:02:12.729Z,97782.03
2023-06-11T02:03:17.220Z,97778.53
2023-06-11T02:04:23.920Z,97778.47
2023-06-11T02:05:26.765Z,97778.81
2023-06-11T02:06:30.202Z,97784.63
2023-06-11T02:07:33.112Z,97780.78
2023-06-11T02:08:36.683Z,97784.94
2023-06-11T02:09:40.116Z,97783.13
2023-06-11T02:10:45.139Z,97781.66
2023-06-11T02:11:47.999Z,97779.66
2023-06-11T02:12:50.917Z,97779.31
2023-06-11T02:13:53.826Z,97779.66
2023-06-11T02:14:57.170Z,97775.03
2023-06-11T02:16:00.439Z,97791.44
2023-06-11T02:17:03.632Z,97784.69
2023-06-11T02:18:07.154Z,97781.53
2023-06-11T02:19:10.403Z,97782.28
2023-06-11T02:20:13.490Z,97789.91
2023-06-11T02:21:16.524Z,97788.28
2023-06-11T02:22:19.526Z,97778.81
2023-06-11T02:23:22.544Z,97785.84
2023-06-11T02:24:25.656Z,97785.06
2023-06-11T02:25:28.516Z,97781.28
2023-06-11T02:26:31.561Z,97784.72
2023-06-11T02:27:34.430Z,97789.66
2023-06-11T02:28:37.182Z,97785.97
2023-06-11T02:29:39.947Z,97784.44
2023-06-11T02:30:42.845Z,97788.84
2023-06-11T02:31:45.825Z,97785.06
2023-06-11T02:32:48.800Z,97792.56
2023-06-11T02:33:51.714Z,97786.75
2023-06-11T02:34:54.533Z,97788.34
2023-06-11T02:35:57.631Z,97790.87
2023-06-11T02:37:00.680Z,97783.75
2023-06-11T02:38:03.603Z,97784.00
2023-06-11T02:39:06.505Z,97792.13
2023-06-11T02:40:09.871Z,97783.00
2023-06-11T02:41:12.838Z,97786.06
2023-06-11T02:42:15.887Z,97783.75
2023-06-11T02:43:18.817Z,97782.16
2023-06-11T02:44:22.973Z,97783.25
2023-06-11T02:45:26.074Z,97791.00
2023-06-11T02:46:29.170Z,97783.13
2023-06-11T02:47:32.260Z,97788.72
2023-06-11T02:48:35.123Z,97787.97
2023-06-11T02:49:37.949Z,97784.69
2023-06-11T02:50:40.770Z,97779.66
2023-06-11T02:51:43.724Z,97779.56
2023-06-11T02:52:46.730Z,97789.41
2023-06-11T02:53:50.126Z,97785.31
2023-06-11T02:54:53.082Z,97783.63
2023-06-11T02:55:56.028Z,97780.69
2023-06-11T02:56:58.890Z,97789.03
2023-06-11T02:58:01.776Z,97780.19
2023-06-11T02:59:04.716Z,97787.66
2023-06-11T03:00:10.301Z,97790.00
2023-06-11T03:01:13.088Z,97783.63
2023-06-11T03:02:16.189Z,97790.09
2023-06-11T03:03:19.056Z,97779.78
2023-06-11T03:04:22.262Z,97785.06
2023-06-11T03:05:25.222Z,97787.78
2023-06-11T03:06:28.231Z,97784.88
2023-06-11T03:07:31.037Z,97783.69
2023-06-11T03:08:33.770Z,97785.91
2023-06-11T03:09:36.634Z,97782.41
2023-06-11T03:10:39.635Z,97789.31
2023-06-11T03:11:42.493Z,97790.87
2023-06-11T03:12:45.465Z,97785.84
2023-06-11T03:13:48.296Z,97785.41
2023-06-11T03:14:51.435Z,97789.94
2023-06-11T03:15:56.651Z,97780.03
2023-06-11T03:16:59.527Z,97785.06
2023-06-11T03:18:04.720Z,97785.41
2023-06-11T03:19:07.577Z,97784.31
2023-06-11T03:20:11.060Z,97784.50
2023-06-11T03:21:15.087Z,97785.00
2023-06-11T03:22:17.939Z,97787.34
2023-06-11T03:23:21.006Z,97790.87
2023-06-11T03:24:23.995Z,97787.72
2023-06-11T03:25:26.895Z,97787.53
2023-06-11T03:26:29.842Z,97788.59
2023-06-11T03:27:33.092Z,97790.19
2023-06-11T03:28:36.053Z,97793.63
2023-06-11T03:29:38.976Z,97783.72
2023-06-11T03:30:41.784Z,97796.69
2023-06-11T03:31:45.203Z,97788.91
2023-06-11T03:32:48.225Z,97795.59
2023-06-11T03:33:51.338Z,97783.72
2023-06-11T03:34:54.419Z,97789.16
2023-06-11T03:35:57.296Z,97789.66
2023-06-11T03:37:00.253Z,97783.94
2023-06-11T03:38:03.047Z,97789.94
2023-06-11T03:39:05.858Z,97779.78
2023-06-11T03:40:09.600Z,97783.63
2023-06-11T03:41:12.619Z,97783.09
2023-06-11T03:42:15.598Z,97783.19
2023-06-11T03:43:18.596Z,97786.41
2023-06-11T03:44:21.444Z,97788.28
2023-06-11T03:45:24.414Z,97789.03
2023-06-11T03:46:27.290Z,97791.97
2023-06-11T03:47:30.164Z,97790.44
2023-06-11T03:48:33.190Z,97788.97
2023-06-11T03:49:36.116Z,97785.97
2023-06-11T03:50:38.964Z,97791.69
2023-06-11T03:51:41.941Z,97791.63
2023-06-11T03:52:44.772Z,97794.19
2023-06-11T03:53:47.637Z,97791.66
2023-06-11T03:54:50.790Z,97801.22
2023-06-11T03:55:53.566Z,97795.22
2023-06-11T03:56:56.577Z,97803.94
2023-06-11T03:57:59.370Z,97804.91
2023-06-11T03:59:02.234Z,97803.09
2023-06-11T04:00:05.688Z,97792.50
2023-06-11T04:01:08.598Z,97799.69
2023-06-11T04:02:11.383Z,97796.19
2023-06-11T04:03:14.367Z,97807.97
2023-06-11T04:04:17.455Z,97809.09
2023-06-11T04:05:20.302Z,97801.56
2023-06-11T04:06:23.089Z,97803.66
2023-06-11T04:07:26.309Z,97810.22
2023-06-11T04:08:29.184Z,97808.72
2023-06-11T04:09:32.718Z,97806.00
2023-06-11T04:10:35.823Z,97810.28
2023-06-11T04:11:38.669Z,97811.88
2023-06-11T04:12:41.455Z,97806.94
2023-06-11T04:13:50.468Z,97813.84
2023-06-11T04:14:53.250Z,97812.03
2023-06-11T04:15:56.239Z,97809.81
2023-06-11T04:16:59.522Z,97814.63
2023-06-11T04:18:02.446Z,97816.41
2023-06-11T04:19:05.428Z,97807.69
2023-06-11T04:20:09.206Z,97815.38
2023-06-11T04:21:11.981Z,97807.94
2023-06-11T04:22:14.816Z,97811.69
2023-06-11T04:23:17.576Z,97817.34
2023-06-11T04:24:20.445Z,97820.00
2023-06-11T04:25:24.025Z,97815.47
2023-06-11T04:26:26.955Z,97816.91
2023-06-11T04:27:35.122Z,97815.88
2023-06-11T04:28:38.585Z,97817.69
2023-06-11T04:29:41.895Z,97815.03
2023-06-11T04:30:44.864Z,97820.31
2023-06-11T04:31:48.789Z,97808.47
2023-06-11T04:32:56.649Z,97818.38
2023-06-11T04:34:04.544Z,97816.91
2023-06-11T04:35:08.090Z,97815.38
2023-06-11T04:36:11.489Z,97807.44
2023-06-11T04:37:17.564Z,97823.66
2023-06-11T04:38:20.429Z,97821.37
2023-06-11T04:39:23.696Z,97813.84
2023-06-11T04:40:26.728Z,97814.19
2023-06-11T04:41:30.866Z,97820.69
2023-06-11T04:42:35.868Z,97814.25
2023-06-11T04:43:39.164Z,97816.16
2023-06-11T04:44:41.890Z,97812.31
2023-06-11T04:45:44.885Z,97818.72
2023-06-11T04:46:49.297Z,97825.12
2023-06-11T04:47:52.310Z,97828.63
2023-06-11T04:49:00.270Z,97820.81
2023-06-11T04:50:05.685Z,97823.03
2023-06-11T04:51:12.834Z,97822.78
2023-06-11T04:52:17.436Z,97816.88
2023-06-11T04:53:24.417Z,97817.22
2023-06-11T04:54:28.673Z,97808.91
2023-06-11T04:55:33.610Z,97814.56
2023-06-11T04:56:36.506Z,97817.66
2023-06-11T04:57:40.180Z,97818.00
2023-06-11T04:58:43.052Z,97818.56
2023-06-11T04:59:46.595Z,97814.53
2023-06-11T05:00:49.681Z,97820.44
2023-06-11T05:01:55.319Z,97823.59
2023-06-11T05:02:58.303Z,97818.72
2023-06-11T05:04:01.073Z,97817.88
2023-06-11T05:05:05.594Z,97820.34
2023-06-11T05:06:09.884Z,97815.03
2023-06-11T05:07:13.553Z,97824.13
2023-06-11T05:08:17.211Z,97822.03
2023-06-11T05:09:20.046Z,97822.25
2023-06-11T05:10:22.841Z,97818.12
2023-06-11T05:11:26.020Z,97818.53
2023-06-11T05:12:28.896Z,97817.91
2023-06-11T05:13:31.731Z,97823.78
2023-06-11T05:14:34.635Z,97821.00
2023-06-11T05:15:37.419Z,97825.28
2023-06-11T05:16:41.159Z,97817.75
2023-06-11T05:17:44.171Z,97822.34
2023-06-11T05:18:47.227Z,97820.66
2023-06-11T05:19:50.138Z,97824.50
2023-06-11T05:20:53.754Z,97831.03
2023-06-11T05:21:56.817Z,97825.75
2023-06-11T05:23:01.073Z,97822.81
2023-06-11T05:24:18.583Z,97827.06
2023-06-11T05:25:23.805Z,97826.00
2023-06-11T05:26:34.038Z,97821.47
2023-06-11T05:27:37.509Z,97823.03
2023-06-11T05:28:41.428Z,97821.66
2023-06-11T05:29:46.111Z,97829.25
2023-06-11T05:30:51.251Z,97828.13
2023-06-11T05:31:54.270Z,97825.53
2023-06-11T05:32:58.150Z,97827.72
2023-06-11T05:34:00.979Z,97829.97
2023-06-11T05:35:04.947Z,97827.81
2023-06-11T05:36:07.797Z,97828.31
2023-06-11T05:37:10.562Z,97831.00
2023-06-11T05:38:13.268Z,97829.91
2023-06-11T05:39:16.255Z,97835.59
2023-06-11T05:40:19.221Z,97826.94
2023-06-11T05:41:22.548Z,97832.34
2023-06-11T05:42:25.340Z,97833.59
2023-06-11T05:43:28.200Z,97835.09
2023-06-11T05:44:31.167Z,97820.78
2023-06-11T05:45:36.832Z,97836.00
2023-06-11T05:46:39.864Z,97828.13
2023-06-11T05:47:43.171Z,97847.47
2023-06-11T05:48:46.930Z,97836.28
2023-06-11T05:49:49.793Z,97836.00
2023-06-11T05:50:53.002Z,97831.50
2023-06-11T05:51:55.884Z,97833.72
2023-06-11T05:52:58.829Z,97830.06
2023-06-11T05:54:03.153Z,97834.19
2023-06-11T05:55:06.567Z,97836.97
2023-06-11T05:56:10.206Z,97830.97
2023-06-11T05:57:21.237Z,97843.94
2023-06-11T05:58:24.182Z,97842.31
2023-06-11T05:59:27.062Z,97841.56
2023-06-11T06:00:30.047Z,97826.69
2023-06-11T06:01:34.587Z,97834.31
2023-06-11T06:02:37.723Z,97836.22
2023-06-11T06:03:41.121Z,97844.53
2023-06-11T06:04:47.613Z,97835.34
2023-06-11T06:05:50.624Z,97837.00
2023-06-11T06:06:53.429Z,97840.16
2023-06-11T06:07:56.560Z,97843.13
2023-06-11T06:09:00.538Z,97839.25
2023-06-11T06:10:04.446Z,97841.66
2023-06-11T06:11:07.380Z,97837.88
2023-06-11T06:12:11.619Z,97845.28
2023-06-11T06:13:14.680Z,97843.94
2023-06-11T06:14:17.443Z,97846.34
2023-06-11T06:15:20.357Z,97841.78
2023-06-11T06:16:24.717Z,97837.31
2023-06-11T06:17:29.699Z,97849.69
2023-06-11T06:18:34.644Z,97848.31
2023-06-11T06:19:37.622Z,97846.81
2023-06-11T06:20:42.014Z,97846.94
2023-06-11T06:21:44.984Z,97842.88
2023-06-11T06:22:47.784Z,97840.69
2023-06-11T06:23:51.662Z,97852.22
2023-06-11T06:24:54.534Z,97843.94
2023-06-11T06:25:57.423Z,97849.03
2023-06-11T06:27:00.350Z,97855.16
2023-06-11T06:28:03.744Z,97848.00
2023-06-11T06:29:06.518Z,97851.44
2023-06-11T06:30:10.286Z,97844.34
2023-06-11T06:31:14.046Z,97850.09
2023-06-11T06:32:16.970Z,97851.69
2023-06-11T06:33:19.798Z,97849.47
2023-06-11T06:34:22.644Z,97852.94
2023-06-11T06:35:25.841Z,97848.41
2023-06-11T06:36:28.692Z,97848.75
2023-06-11T06:37:31.629Z,97853.69
2023-06-11T06:38:36.665Z,97859.41
2023-06-11T06:39:39.468Z,97845.28
2023-06-11T06:40:42.326Z,97852.44
2023-06-11T06:41:45.275Z,97853.25
2023-06-11T06:42:48.156Z,97855.25
2023-06-11T06:43:53.613Z,97851.50
2023-06-11T06:44:56.855Z,97857.25
2023-06-11T06:45:59.656Z,97853.13
2023-06-11T06:47:02.804Z,97850.09
2023-06-11T06:48:06.352Z,97861.56
2023-06-11T06:49:09.445Z,97857.38
2023-06-11T06:50:12.617Z,97857.38
2023-06-11T06:51:15.781Z,97861.25
2023-06-11T06:52:18.563Z,97855.53
2023-06-11T06:53:21.509Z,97858.97
2023-06-11T06:54:24.316Z,97865.81
2023-06-11T06:55:27.174Z,97863.53
2023-06-11T06:56:30.141Z,97863.91
2023-06-11T06:57:33.138Z,97863.12
2023-06-11T06:58:36.189Z,97861.56
2023-06-11T06:59:39.014Z,97858.53
2023-06-11T07:00:42.282Z,97858.13
2023-06-11T07:01:45.218Z,97855.09
2023-06-11T07:02:48.347Z,97868.06
2023-06-11T07:03:51.253Z,97863.16
2023-06-11T07:04:54.378Z,97863.91
2023-06-11T07:05:57.265Z,97867.72
2023-06-11T07:06:59.983Z,97867.34
2023-06-11T07:08:02.743Z,97863.88
2023-06-11T07:09:05.856Z,97865.78
2023-06-11T07:10:09.888Z,97868.47
2023-06-11T07:11:13.611Z,97864.25
2023-06-11T07:12:16.518Z,97864.22
2023-06-11T07:13:19.483Z,97865.78
2023-06-11T07:14:22.365Z,97861.97
2023-06-11T07:15:25.608Z,97867.69
2023-06-11T07:16:28.501Z,97866.59
2023-06-11T07:17:31.715Z,97861.63
2023-06-11T07:18:34.629Z,97869.28
2023-06-11T07:19:37.582Z,97864.34
2023-06-11T07:20:40.627Z,97867.00
2023-06-11T07:21:43.551Z,97871.94
2023-06-11T07:22:46.291Z,97856.63
2023-06-11T07:23:49.154Z,97861.19
2023-06-11T07:24:52.355Z,97858.87
2023-06-11T07:25:56.678Z,97860.03
2023-06-11T07:26:59.529Z,97862.38
2023-06-11T07:28:02.987Z,97869.25
2023-06-11T07:29:05.914Z,97870.41
2023-06-11T07:30:09.820Z,97866.94
2023-06-11T07:31:14.198Z,97871.22
2023-06-11T07:32:17.265Z,97874.66
2023-06-11T07:33:20.179Z,97865.88
2023-06-11T07:34:23.073Z,97868.94
2023-06-11T07:35:27.563Z,97871.62
2023-06-11T07:36:30.381Z,97871.19
2023-06-11T07:37:33.578Z,97868.84
2023-06-11T07:38:36.417Z,97868.84
2023-06-11T07:39:39.221Z,97869.25
2023-06-11T07:40:42.170Z,97871.88
2023-06-11T07:41:45.008Z,97875.75
2023-06-11T07:42:48.917Z,97866.59
2023-06-11T07:43:51.817Z,97874.94
2023-06-11T07:44:54.655Z,97882.22
2023-06-11T07:45:57.525Z,97879.94
2023-06-11T07:47:00.801Z,97883.00
2023-06-11T07:48:04.244Z,97880.31
2023-06-11T07:49:07.168Z,97875.37
2023-06-11T07:50:11.659Z,97880.69
2023-06-11T07:51:19.194Z,97876.09
2023-06-11T07:52:23.158Z,97879.94
2023-06-11T07:53:25.889Z,97875.37
2023-06-11T07:54:29.195Z,97884.91
2023-06-11T07:55:32.067Z,97877.25
2023-06-11T07:56:35.043Z,97879.97
2023-06-11T07:57:37.986Z,97882.59
2023-06-11T07:58:41.105Z,97882.63
2023-06-11T07:59:44.898Z,97880.72
2023-06-11T08:00:47.927Z,97881.44
2023-06-11T08:01:51.009Z,97885.66
2023-06-11T08:02:54.179Z,97879.56
2023-06-11T08:03:57.002Z,97884.16
2023-06-11T08:04:59.855Z,97890.28
2023-06-11T08:06:02.825Z,97888.34
2023-06-11T08:07:06.758Z,97898.25
2023-06-11T08:08:09.547Z,97894.06
2023-06-11T08:09:12.591Z,97905.50
2023-06-11T08:10:17.172Z,97900.94
2023-06-11T08:11:19.958Z,97896.34
2023-06-11T08:12:22.701Z,97892.56
2023-06-11T08:13:25.532Z,97905.97
2023-06-11T08:14:28.335Z,97906.34
2023-06-11T08:15:31.905Z,97900.22
2023-06-11T08:16:34.824Z,97905.97
2023-06-11T08:17:37.936Z,97897.13
2023-06-11T08:18:41.146Z,97901.38
2023-06-11T08:19:44.190Z,97897.19
2023-06-11T08:20:47.699Z,97898.31
2023-06-11T08:21:50.620Z,97907.09
2023-06-11T08:22:53.555Z,97903.28
2023-06-11T08:23:56.839Z,97899.81
2023-06-11T08:24:59.848Z,97900.50
2023-06-11T08:26:03.001Z,97900.53
2023-06-11T08:27:06.283Z,97902.84
2023-06-11T08:28:09.116Z,97901.31
2023-06-11T08:29:12.175Z,97903.59
2023-06-11T08:30:15.096Z,97893.31
2023-06-11T08:31:17.980Z,97898.97
2023-06-11T08:32:20.926Z,97894.03
2023-06-11T08:34:26.445Z,97902.09
2023-06-11T08:35:29.278Z,97904.00
2023-06-11T08:36:33.036Z,97897.56
2023-06-11T08:37:36.105Z,97910.50
2023-06-11T08:38:39.244Z,97896.34
2023-06-11T08:39:42.827Z,97908.56
2023-06-11T08:40:46.517Z,97898.66
2023-06-11T08:41:49.568Z,97908.97
2023-06-11T08:42:52.485Z,97902.50
2023-06-11T08:43:55.292Z,97907.88
2023-06-11T08:44:58.110Z,97900.59
2023-06-11T08:46:01.031Z,97905.59
2023-06-11T08:47:05.418Z,97901.75
2023-06-11T08:48:10.695Z,97902.91
2023-06-11T08:49:21.866Z,97902.88
2023-06-11T08:50:26.158Z,97904.03
2023-06-11T08:51:35.424Z,97909.03
2023-06-11T08:52:41.517Z,97913.22
2023-06-11T08:53:44.333Z,97907.09
2023-06-11T08:54:47.234Z,97909.78
2023-06-11T08:55:50.223Z,97907.13
2023-06-11T08:56:53.206Z,97906.34
2023-06-11T08:57:55.957Z,97909.41
2023-06-11T08:59:01.645Z,97913.19
2023-06-11T09:00:07.102Z,97912.44
2023-06-11T09:01:13.081Z,97910.53
2023-06-11T09:02:16.247Z,97913.97
2023-06-11T09:03:19.202Z,97910.53
2023-06-11T09:04:22.646Z,97910.16
2023-06-11T09:05:25.761Z,97911.31
2023-06-11T09:06:31.839Z,97909.41
2023-06-11T09:07:37.297Z,97909.00
2023-06-11T09:08:40.892Z,97917.03
2023-06-11T09:09:43.877Z,97911.31
2023-06-11T09:10:51.696Z,97907.06
2023-06-11T09:11:54.666Z,97912.41
2023-06-11T09:12:58.105Z,97904.03
2023-06-11T09:14:01.753Z,97907.84
2023-06-11T09:15:07.788Z,97913.56
2023-06-11T09:16:11.085Z,97912.41
2023-06-11T09:17:17.324Z,97910.09
2023-06-11T09:18:21.398Z,97910.88
2023-06-11T09:19:24.479Z,97916.53
2023-06-11T09:20:28.275Z,97906.97
2023-06-11T09:21:31.225Z,97914.22
2023-06-11T09:22:36.080Z,97921.47
2023-06-11T09:23:40.271Z,97906.56
2023-06-11T09:24:43.365Z,97911.59
2023-06-11T09:25:48.054Z,97920.81
2023-06-11T09:26:56.049Z,97921.53
2023-06-11T09:28:07.261Z,97916.94
2023-06-11T09:29:09.998Z,97918.47
2023-06-11T09:30:14.800Z,97914.63
2023-06-11T09:31:21.946Z,97923.06
2023-06-11T09:32:33.989Z,97921.91
2023-06-11T09:33:38.193Z,97927.63
2023-06-11T09:34:41.678Z,97925.72
2023-06-11T09:35:45.574Z,97926.09
2023-06-11T09:36:49.426Z,97927.66
2023-06-11T09:37:53.797Z,97920.78
2023-06-11T09:38:57.041Z,97927.63
2023-06-11T09:40:00.655Z,97927.63
2023-06-11T09:41:06.659Z,97915.41
2023-06-11T09:42:24.484Z,97910.81
2023-06-11T09:43:27.466Z,97919.53
2023-06-11T09:44:34.673Z,97921.13
2023-06-11T09:45:38.583Z,97918.41
2023-06-11T09:46:41.611Z,97920.66
2023-06-11T09:47:47.565Z,97918.41
2023-06-11T09:48:50.847Z,97916.41
2023-06-11T09:49:55.101Z,97914.59
2023-06-11T09:51:01.601Z,97917.97
2023-06-11T09:52:04.880Z,97915.66
2023-06-11T09:53:11.016Z,97914.34
2023-06-11T09:54:14.104Z,97918.50
2023-06-11T09:55:17.126Z,97916.12
2023-06-11T09:56:20.755Z,97912.59
2023-06-11T09:57:23.631Z,97923.19
2023-06-11T09:58:29.549Z,97912.06
2023-06-11T09:59:35.492Z,97911.25
2023-06-11T10:00:38.376Z,97922.03
2023-06-11T10:01:42.725Z,97917.50
2023-06-11T10:02:46.046Z,97918.13
2023-06-11T10:03:49.645Z,97914.00
2023-06-11T10:04:52.604Z,97919.78
2023-06-11T10:05:55.751Z,97922.28
2023-06-11T10:06:58.898Z,97921.34
2023-06-11T10:08:13.718Z,97920.16
2023-06-11T10:09:18.032Z,97916.28
2023-06-11T10:10:23.680Z,97917.63
2023-06-11T10:11:27.485Z,97918.81
2023-06-11T10:12:35.875Z,97913.16
2023-06-11T10:13:39.503Z,97920.41
2023-06-11T10:14:42.480Z,97914.78
2023-06-11T10:15:50.028Z,97912.47
2023-06-11T10:16:55.523Z,97916.31
2023-06-11T10:17:58.641Z,97923.28
2023-06-11T10:19:09.112Z,97924.59
2023-06-11T10:20:39.278Z,97919.34
2023-06-11T10:21:45.692Z,97920.69
2023-06-11T10:22:48.820Z,97915.22
2023-06-11T10:23:54.784Z,97919.31
2023-06-11T10:25:02.695Z,97926.47
2023-06-11T10:26:06.214Z,97915.75
2023-06-11T10:27:15.670Z,97926.13
2023-06-11T10:28:18.585Z,97921.69
2023-06-11T10:29:27.657Z,97918.72
2023-06-11T10:30:30.713Z,97923.31
2023-06-11T10:31:41.427Z,97919.44
2023-06-11T10:32:51.411Z,97912.69
2023-06-11T10:34:03.033Z,97917.72
2023-06-11T10:35:08.185Z,97911.41
2023-06-11T10:36:22.277Z,97910.91
2023-06-11T10:37:36.835Z,97915.09
2023-06-11T10:38:39.663Z,97910.13
2023-06-11T10:39:52.518Z,97920.09
2023-06-11T10:41:04.069Z,97908.06
2023-06-11T10:42:07.400Z,97906.91
2023-06-11T10:43:18.490Z,97916.66
2023-06-11T10:44:25.304Z,97912.00
2023-06-11T10:45:37.435Z,97910.44
2023-06-11T10:46:52.425Z,97912.97
2023-06-11T10:48:01.307Z,97907.38
2023-06-11T10:49:14.941Z,97909.00
2023-06-11T10:50:26.159Z,97895.81
2023-06-11T10:51:40.303Z,97911.03
2023-06-11T10:52:53.799Z,97904.78
2023-06-11T10:53:59.670Z,97910.59
2023-06-11T10:55:03.064Z,97907.16
2023-06-11T10:56:06.169Z,97908.19
2023-06-11T10:57:09.463Z,97907.13
2023-06-11T10:58:24.106Z,97901.19
2023-06-11T10:59:27.406Z,97901.47
2023-06-11T11:00:34.443Z,97901.03
2023-06-11T11:01:38.601Z,97905.16
2023-06-11T11:02:41.764Z,97902.50
2023-06-11T11:03:45.434Z,97914.59
2023-06-11T11:04:52.930Z,97902.81
2023-06-11T11:05:57.351Z,97899.44
2023-06-11T11:07:10.553Z,97899.91
2023-06-11T11:08:16.025Z,97910.25
2023-06-11T11:09:24.307Z,97901.94
2023-06-11T11:10:29.163Z,97903.34
2023-06-11T11:11:32.065Z,97906.91
2023-06-11T11:12:46.899Z,97913.53
2023-06-11T11:13:51.606Z,97904.81
2023-06-11T11:14:54.681Z,97907.00
2023-06-11T11:16:00.026Z,97917.78
2023-06-11T11:17:03.331Z,97905.91
2023-06-11T11:18:06.244Z,97898.94
2023-06-11T11:19:09.418Z,97908.94
2023-06-11T11:20:15.401Z,97904.00
2023-06-11T11:21:19.388Z,97898.16
2023-06-11T11:22:22.193Z,97893.78
2023-06-11T11:23:28.057Z,97900.94
2023-06-11T11:24:38.981Z,97898.22
2023-06-11T11:25:43.856Z,97900.34
2023-06-11T11:26:47.298Z,97898.34
2023-06-11T11:27:50.365Z,97898.25
2023-06-11T11:28:53.448Z,97899.38
2023-06-11T11:30:03.387Z,97902.66
2023-06-11T11:31:06.846Z,97890.09
2023-06-11T11:32:09.793Z,97881.78
2023-06-11T11:33:12.932Z,97887.69
2023-06-11T11:34:16.381Z,97881.47
2023-06-11T11:35:19.700Z,97892.03
2023-06-11T11:36:23.635Z,97888.28
2023-06-11T11:37:31.988Z,97893.59
2023-06-11T11:38:39.232Z,97895.94
2023-06-11T11:39:42.192Z,97894.41
2023-06-11T11:40:45.055Z,97893.16
2023-06-11T11:41:50.057Z,97891.72
2023-06-11T11:42:57.407Z,97893.16
2023-06-11T11:44:01.571Z,97891.81
2023-06-11T11:45:04.853Z,97888.47
2023-06-11T11:46:17.663Z,97879.41
2023-06-11T11:47:23.310Z,97892.84
2023-06-11T11:48:26.553Z,97889.97
2023-06-11T11:49:35.935Z,97888.09
2023-06-11T11:50:39.938Z,97893.09
2023-06-11T11:51:52.701Z,97890.03
2023-06-11T11:53:07.311Z,97890.03
2023-06-11T11:54:17.196Z,97883.66
2023-06-11T11:55:20.435Z,97884.03
2023-06-11T11:56:23.836Z,97882.50
2023-06-11T11:57:27.074Z,97884.47
2023-06-11T11:58:37.389Z,97883.34
2023-06-11T11:59:41.649Z,97884.53
2023-06-11T12:00:49.539Z,97879.84
2023-06-11T12:01:59.493Z,97878.88
2023-06-11T12:03:10.670Z,97876.19
2023-06-11T12:04:13.802Z,97873.06
2023-06-11T12:05:16.588Z,97879.97
2023-06-11T12:06:26.020Z,97875.75
2023-06-11T12:07:28.987Z,97876.84
2023-06-11T12:08:33.792Z,97867.66
2023-06-11T12:09:40.438Z,97865.84
2023-06-11T12:10:43.252Z,97873.78
2023-06-11T12:11:56.384Z,97862.78
2023-06-11T12:13:08.418Z,97868.06
2023-06-11T12:14:11.584Z,97868.00
2023-06-11T12:15:14.776Z,97868.56
2023-06-11T12:16:17.961Z,97865.06
2023-06-11T12:17:21.090Z,97857.13
2023-06-11T12:18:24.072Z,97866.63
2023-06-11T12:19:30.207Z,97865.50
2023-06-11T12:20:33.327Z,97872.00
2023-06-11T12:21:36.153Z,97868.94
2023-06-11T12:22:39.594Z,97865.72
2023-06-11T12:23:42.418Z,97877.50
2023-06-11T12:24:45.405Z,97868.75
2023-06-11T12:25:48.708Z,97865.34
2023-06-11T12:26:52.758Z,97869.19
2023-06-11T12:27:55.954Z,97864.75
2023-06-11T12:28:59.447Z,97865.56
2023-06-11T12:30:02.385Z,97864.81
2023-06-11T12:31:05.302Z,97869.34
2023-06-11T12:32:14.717Z,97873.56
2023-06-11T12:33:17.835Z,97872.44
2023-06-11T12:34:20.857Z,97863.22
2023-06-11T12:35:23.745Z,97874.28
2023-06-11T12:36:26.714Z,97871.66
2023-06-11T12:37:29.580Z,97873.59